createdAt,value
2022-12-12T00:00:32.257Z,22.73
2022-12-12T00:01:38.009Z,23.02
2022-12-12T00:02:42.302Z,22.98
2022-12-12T00:03:44.667Z,22.48
2022-12-12T00:04:47.836Z,23.50
2022-12-12T00:05:54.087Z,23.08
2022-12-12T00:06:57.135Z,22.58
2022-12-12T00:07:59.293Z,21.85
2022-12-12T00:09:04.511Z,23.00
2022-12-12T00:10:08.251Z,23.40
2022-12-12T00:11:11.755Z,23.95
2022-12-12T00:12:14.840Z,21.88
2022-12-12T00:13:16.976Z,23.30
2022-12-12T00:14:20.053Z,23.25
2022-12-12T00:15:22.122Z,22.60
2022-12-12T00:16:26.373Z,22.38
2022-12-12T00:17:28.473Z,23.77
2022-12-12T00:18:31.541Z,24.38
2022-12-12T00:19:33.574Z,24.13
2022-12-12T00:20:36.839Z,23.02
2022-12-12T00:21:39.076Z,23.05
2022-12-12T00:22:42.231Z,23.40
2022-12-12T00:23:44.696Z,24.23
2022-12-12T00:24:49.380Z,23.98
2022-12-12T00:25:56.060Z,23.80
2022-12-12T00:26:59.112Z,23.35
2022-12-12T00:28:02.542Z,23.35
2022-12-12T00:29:06.240Z,24.42
2022-12-12T00:30:09.400Z,22.23
2022-12-12T00:31:12.734Z,23.17
2022-12-12T00:32:15.890Z,22.08
2022-12-12T00:33:18.269Z,23.13
2022-12-12T00:34:21.246Z,22.65
2022-12-12T00:35:24.231Z,22.80
2022-12-12T00:36:29.532Z,22.90
2022-12-12T00:37:31.559Z,23.65
2022-12-12T00:38:34.871Z,22.33
2022-12-12T00:39:37.958Z,22.02
2022-12-12T00:40:44.050Z,22.15
2022-12-12T00:41:47.440Z,22.45
2022-12-12T00:42:49.543Z,22.75
2022-12-12T00:43:53.069Z,22.75
2022-12-12T00:44:55.093Z,22.98
2022-12-12T00:46:00.031Z,22.77
2022-12-12T00:47:02.921Z,21.77
2022-12-12T00:48:07.088Z,22.40
2022-12-12T00:49:09.213Z,23.13
2022-12-12T00:50:12.212Z,23.48
2022-12-12T00:51:18.322Z,22.20
2022-12-12T00:52:21.382Z,21.63
2022-12-12T00:53:23.708Z,22.80
2022-12-12T00:54:26.774Z,21.52
2022-12-12T00:55:29.025Z,22.95
2022-12-12T00:56:33.575Z,22.75
2022-12-12T00:57:35.864Z,22.27
2022-12-12T00:58:38.836Z,22.17
2022-12-12T00:59:40.853Z,23.10
2022-12-12T01:00:43.868Z,22.80
2022-12-12T01:01:46.878Z,23.00
2022-12-12T01:02:50.262Z,23.10
2022-12-12T01:03:53.887Z,21.60
2022-12-12T01:04:56.910Z,23.02
2022-12-12T01:05:59.065Z,21.63
2022-12-12T01:07:02.357Z,22.10
2022-12-12T01:08:04.647Z,22.00
2022-12-12T01:09:07.719Z,22.92
2022-12-12T01:10:10.493Z,21.33
2022-12-12T01:11:15.005Z,20.48
2022-12-12T01:12:19.438Z,20.40
2022-12-12T01:13:21.556Z,20.33
2022-12-12T01:14:24.634Z,20.77
2022-12-12T01:15:26.799Z,20.70
2022-12-12T01:16:30.437Z,21.05
2022-12-12T01:17:37.775Z,21.55
2022-12-12T01:18:41.821Z,20.73
2022-12-12T01:19:44.031Z,20.38
2022-12-12T01:20:47.182Z,21.67
2022-12-12T01:21:50.216Z,20.92
2022-12-12T01:22:53.263Z,20.33
2022-12-12T01:23:56.453Z,21.83
2022-12-12T01:25:00.477Z,21.08
2022-12-12T01:26:04.667Z,21.38
2022-12-12T01:27:06.688Z,20.75
2022-12-12T01:28:11.704Z,21.73
2022-12-12T01:29:13.955Z,22.35
2022-12-12T01:30:19.620Z,21.30
2022-12-12T01:31:22.314Z,22.10
2022-12-12T01:32:25.318Z,21.15
2022-12-12T01:33:28.410Z,21.00
2022-12-12T01:34:30.456Z,22.10
2022-12-12T01:35:34.387Z,21.25
2022-12-12T01:36:36.585Z,20.60
2022-12-12T01:37:41.593Z,21.38
2022-12-12T01:38:45.797Z,21.48
2022-12-12T01:39:47.972Z,22.33
2022-12-12T01:40:51.178Z,21.92
2022-12-12T01:41:53.158Z,21.50
2022-12-12T01:42:56.250Z,20.63
2022-12-12T01:44:02.652Z,21.30
2022-12-12T01:45:06.490Z,21.45
2022-12-12T01:46:38.897Z,21.05
2022-12-12T01:47:41.987Z,20.20
2022-12-12T01:48:49.451Z,22.02
2022-12-12T01:49:56.725Z,20.52
2022-12-12T01:51:01.130Z,22.02
2022-12-12T01:52:08.446Z,21.70
2022-12-12T01:53:11.285Z,21.38
2022-12-12T01:54:18.147Z,21.55
2022-12-12T01:55:23.943Z,21.50
2022-12-12T01:56:26.306Z,21.52
2022-12-12T01:57:33.449Z,22.58
2022-12-12T01:58:35.543Z,22.35
2022-12-12T01:59:40.988Z,21.90
2022-12-12T02:00:43.685Z,22.27
2022-12-12T02:01:47.210Z,22.38
2022-12-12T02:02:50.716Z,21.88
2022-12-12T02:03:53.258Z,22.10
2022-12-12T02:04:56.868Z,23.05
2022-12-12T02:06:02.925Z,22.92
2022-12-12T02:07:06.406Z,21.35
2022-12-12T02:08:10.520Z,22.92
2022-12-12T02:09:16.890Z,22.02
2022-12-12T02:10:19.130Z,22.20
2022-12-12T02:11:22.162Z,22.88
2022-12-12T02:12:25.198Z,22.33
2022-12-12T02:13:31.654Z,23.05
2022-12-12T02:14:37.919Z,23.25
2022-12-12T02:15:44.587Z,22.27
2022-12-12T02:17:02.612Z,22.48
2022-12-12T02:18:12.493Z,21.88
2022-12-12T02:19:37.623Z,20.85
2022-12-12T02:21:12.201Z,21.95
2022-12-12T02:22:25.115Z,21.52
2022-12-12T02:24:06.666Z,22.00
2022-12-12T02:25:31.826Z,21.90
2022-12-12T02:27:10.884Z,22.17
2022-12-12T02:28:34.042Z,21.60
2022-12-12T02:30:18.457Z,21.80
2022-12-12T02:31:27.588Z,20.67
2022-12-12T02:32:43.636Z,22.48
2022-12-12T02:33:56.513Z,22.88
2022-12-12T02:35:06.247Z,21.50
2022-12-12T02:36:16.734Z,16.48
2022-12-12T02:37:30.712Z,22.38
2022-12-12T02:38:43.586Z,23.13
2022-12-12T02:39:56.093Z,22.48
2022-12-12T02:41:12.216Z,22.67
2022-12-12T02:42:21.485Z,23.05
2022-12-12T02:43:33.598Z,21.77
2022-12-12T02:44:42.278Z,22.75
2022-12-12T02:45:49.586Z,23.90
2022-12-12T02:47:01.309Z,23.38
2022-12-12T02:48:12.142Z,22.13
2022-12-12T02:49:21.259Z,22.05
2022-12-12T02:50:26.851Z,23.85
2022-12-12T02:51:30.635Z,23.38
2022-12-12T02:52:33.837Z,22.80
2022-12-12T02:53:35.867Z,24.55
2022-12-12T02:54:39.224Z,24.38
2022-12-12T02:55:41.216Z,24.10
2022-12-12T02:56:48.459Z,24.40
2022-12-12T02:57:52.016Z,24.05
2022-12-12T02:58:55.105Z,25.00
2022-12-12T03:00:00.614Z,23.13
2022-12-12T03:01:17.297Z,24.05
2022-12-12T03:02:47.160Z,23.85
2022-12-12T03:04:13.327Z,23.35
2022-12-12T03:06:00.735Z,23.33
2022-12-12T03:07:29.657Z,23.17
2022-12-12T03:08:47.250Z,26.38
2022-12-12T03:10:02.099Z,24.00
2022-12-12T03:11:09.266Z,23.60
2022-12-12T03:12:18.075Z,24.50
2022-12-12T03:13:32.045Z,24.83
2022-12-12T03:14:47.281Z,26.27
2022-12-12T03:15:57.976Z,25.05
2022-12-12T03:18:21.810Z,24.10
2022-12-12T03:19:29.207Z,22.55
2022-12-12T03:20:39.940Z,23.55
2022-12-12T03:21:47.233Z,23.77
2022-12-12T03:22:55.902Z,23.58
2022-12-12T03:24:05.776Z,22.08
2022-12-12T03:25:15.322Z,22.77
2022-12-12T03:26:24.779Z,22.50
2022-12-12T03:27:33.080Z,22.85
2022-12-12T03:28:39.721Z,22.50
2022-12-12T03:29:47.810Z,24.30
2022-12-12T03:30:55.603Z,23.02
2022-12-12T03:32:05.130Z,23.25
2022-12-12T03:33:16.601Z,23.15
2022-12-12T03:34:24.196Z,23.38
2022-12-12T03:35:30.518Z,22.75
2022-12-12T03:36:38.025Z,22.58
2022-12-12T03:37:46.782Z,23.73
2022-12-12T03:38:57.318Z,22.30
2022-12-12T03:40:03.621Z,23.95
2022-12-12T03:41:09.967Z,23.35
2022-12-12T03:42:20.138Z,21.90
2022-12-12T03:43:26.167Z,17.60
2022-12-12T03:44:39.761Z,23.75
2022-12-12T03:45:52.502Z,24.35
2022-12-12T03:46:59.260Z,23.92
2022-12-12T03:48:08.268Z,24.35
2022-12-12T03:49:15.929Z,25.38
2022-12-12T03:50:22.543Z,24.13
2022-12-12T03:51:29.255Z,24.02
2022-12-12T03:52:35.911Z,24.98
2022-12-12T03:53:44.798Z,24.55
2022-12-12T03:54:52.990Z,24.63
2022-12-12T03:55:58.104Z,24.40
2022-12-12T03:57:06.395Z,25.23
2022-12-12T03:58:14.807Z,23.95
2022-12-12T03:59:24.055Z,25.95
2022-12-12T04:00:33.738Z,24.00
2022-12-12T04:01:44.413Z,23.42
2022-12-12T04:02:52.940Z,25.08
2022-12-12T04:04:03.165Z,24.58
2022-12-12T04:05:15.963Z,23.80
2022-12-12T04:06:27.447Z,24.30
2022-12-12T04:07:34.519Z,25.52
2022-12-12T04:08:38.055Z,25.73
2022-12-12T04:09:59.444Z,25.98
2022-12-12T04:11:25.991Z,24.38
2022-12-12T04:12:56.363Z,25.15
2022-12-12T04:14:09.089Z,25.35
2022-12-12T04:15:22.351Z,23.52
2022-12-12T04:16:29.017Z,24.15
2022-12-12T04:17:37.867Z,24.15
2022-12-12T04:18:50.163Z,24.73
2022-12-12T04:20:16.879Z,23.98
2022-12-12T04:21:51.846Z,23.95
2022-12-12T04:23:16.754Z,23.60
2022-12-12T04:24:26.201Z,23.58
2022-12-12T04:25:56.634Z,24.33
2022-12-12T04:27:05.994Z,22.27
2022-12-12T04:28:08.193Z,23.70
2022-12-12T04:29:20.847Z,24.55
2022-12-12T04:30:24.826Z,23.75
2022-12-12T04:31:29.206Z,23.42
2022-12-12T04:32:37.156Z,23.70
2022-12-12T04:33:44.164Z,24.23
2022-12-12T04:34:52.321Z,23.52
2022-12-12T04:35:57.748Z,24.17
2022-12-12T04:37:04.032Z,24.95
2022-12-12T04:38:10.567Z,22.90
2022-12-12T04:39:17.966Z,24.35
2022-12-12T04:40:26.221Z,24.10
2022-12-12T04:41:31.174Z,24.50
2022-12-12T04:42:38.898Z,23.42
2022-12-12T04:43:43.584Z,22.80
2022-12-12T04:44:48.410Z,24.55
2022-12-12T04:45:54.878Z,23.08
2022-12-12T04:47:01.717Z,23.13
2022-12-12T04:48:06.921Z,23.40
2022-12-12T04:49:16.483Z,24.98
2022-12-12T04:50:21.068Z,24.02
2022-12-12T04:51:29.104Z,24.98
2022-12-12T04:52:35.317Z,23.63
2022-12-12T04:53:43.267Z,24.02
2022-12-12T04:54:50.626Z,23.73
2022-12-12T04:55:57.164Z,23.13
2022-12-12T04:57:03.315Z,23.88
2022-12-12T04:58:07.315Z,23.05
2022-12-12T04:59:10.583Z,24.67
2022-12-12T05:00:15.246Z,22.77
2022-12-12T05:01:23.342Z,23.80
2022-12-12T05:02:34.291Z,23.65
2022-12-12T05:03:44.028Z,23.35
2022-12-12T05:04:54.617Z,24.47
2022-12-12T05:06:00.390Z,23.38
2022-12-12T05:07:08.449Z,23.88
2022-12-12T05:08:17.202Z,22.60
2022-12-12T05:09:21.295Z,21.88
2022-12-12T05:10:24.448Z,23.02
2022-12-12T05:11:26.621Z,24.42
2022-12-12T05:12:29.628Z,23.52
2022-12-12T05:13:33.811Z,23.90
2022-12-12T05:14:36.827Z,24.80
2022-12-12T05:15:44.727Z,24.45
2022-12-12T05:16:51.138Z,25.02
2022-12-12T05:18:00.073Z,24.90
2022-12-12T05:19:02.249Z,24.40
2022-12-12T05:20:06.045Z,25.48
2022-12-12T05:21:08.052Z,24.42
2022-12-12T05:22:11.094Z,24.27
2022-12-12T05:23:14.796Z,23.13
2022-12-12T05:24:17.850Z,24.05
2022-12-12T05:25:20.430Z,23.85
2022-12-12T05:26:27.033Z,24.50
2022-12-12T05:27:29.093Z,23.35
2022-12-12T05:28:32.121Z,24.20
2022-12-12T05:29:35.200Z,24.23
2022-12-12T05:30:37.410Z,23.73
2022-12-12T05:31:40.499Z,23.90
2022-12-12T05:32:42.635Z,23.50
2022-12-12T05:33:46.411Z,23.15
2022-12-12T05:34:48.530Z,23.92
2022-12-12T05:35:51.590Z,23.55
2022-12-12T05:36:54.677Z,23.50
2022-12-12T05:37:57.719Z,24.23
2022-12-12T05:39:01.122Z,23.42
2022-12-12T05:40:04.860Z,23.92
2022-12-12T05:41:06.927Z,23.45
2022-12-12T05:42:09.961Z,24.65
2022-12-12T05:43:12.050Z,25.13
2022-12-12T05:44:15.062Z,23.67
2022-12-12T05:45:17.122Z,24.88
2022-12-12T05:46:20.215Z,24.35
2022-12-12T05:47:22.245Z,24.50
2022-12-12T05:48:25.280Z,24.13
2022-12-12T05:49:27.398Z,25.13
2022-12-12T05:50:30.389Z,24.48
2022-12-12T05:51:32.373Z,23.60
2022-12-12T05:52:36.809Z,24.65
2022-12-12T05:53:42.823Z,24.95
2022-12-12T05:54:47.793Z,24.10
2022-12-12T05:55:50.759Z,24.63
2022-12-12T05:56:53.776Z,24.80
2022-12-12T05:57:55.768Z,23.75
2022-12-12T05:58:58.896Z,24.38
2022-12-12T06:00:01.038Z,24.60
2022-12-12T06:01:05.625Z,24.90
2022-12-12T06:02:07.744Z,24.65
2022-12-12T06:03:10.852Z,24.65
2022-12-12T06:04:13.893Z,23.75
2022-12-12T06:05:16.220Z,24.33
2022-12-12T06:06:20.106Z,25.02
2022-12-12T06:07:22.160Z,25.60
2022-12-12T06:08:25.419Z,25.00
2022-12-12T06:09:28.855Z,25.23
2022-12-12T06:10:33.375Z,25.17
2022-12-12T06:11:36.437Z,23.40
2022-12-12T06:12:38.595Z,24.77
2022-12-12T06:13:41.620Z,24.90
2022-12-12T06:14:43.631Z,24.98
2022-12-12T06:15:46.669Z,25.00
2022-12-12T06:16:48.758Z,24.20
2022-12-12T06:17:52.385Z,25.17
2022-12-12T06:18:55.554Z,24.92
2022-12-12T06:19:58.613Z,25.30
2022-12-12T06:21:06.202Z,25.13
2022-12-12T06:22:08.265Z,25.45
2022-12-12T06:23:11.281Z,25.85
2022-12-12T06:24:13.537Z,24.48
2022-12-12T06:25:16.563Z,25.27
2022-12-12T06:26:21.451Z,24.92
2022-12-12T06:27:24.507Z,24.58
2022-12-12T06:28:27.524Z,25.08
2022-12-12T06:29:29.691Z,23.80
2022-12-12T06:30:32.788Z,24.92
2022-12-12T06:31:35.810Z,24.80
2022-12-12T06:32:38.849Z,26.08
2022-12-12T06:33:43.397Z,24.27
2022-12-12T06:34:45.441Z,24.73
2022-12-12T06:35:58.941Z,25.77
2022-12-12T06:37:01.929Z,24.80
2022-12-12T06:38:04.939Z,25.92
2022-12-12T06:39:07.430Z,24.90
2022-12-12T06:40:11.829Z,25.60
2022-12-12T06:41:15.861Z,25.17
2022-12-12T06:42:20.310Z,25.40
2022-12-12T06:43:22.494Z,25.77
2022-12-12T06:44:25.500Z,25.30
2022-12-12T06:45:28.527Z,25.65
2022-12-12T06:46:30.912Z,25.50
2022-12-12T06:47:34.017Z,24.88
2022-12-12T06:48:37.439Z,26.80
2022-12-12T06:49:40.548Z,26.23
2022-12-12T06:50:44.108Z,27.02
2022-12-12T06:51:48.887Z,25.67
2022-12-12T06:52:51.955Z,26.38
2022-12-12T06:53:54.240Z,25.58
2022-12-12T06:54:57.239Z,27.08
2022-12-12T06:56:00.374Z,26.42
2022-12-12T06:57:03.417Z,27.35
2022-12-12T06:58:06.834Z,26.63
2022-12-12T06:59:12.094Z,27.25
2022-12-12T07:00:16.353Z,27.77
2022-12-12T07:01:20.470Z,26.55
2022-12-12T07:02:29.608Z,25.88
2022-12-12T07:03:33.182Z,26.33
2022-12-12T07:04:36.187Z,27.15
2022-12-12T07:05:39.215Z,26.67
2022-12-12T07:06:41.571Z,27.20
2022-12-12T07:07:44.632Z,27.55
2022-12-12T07:08:46.866Z,26.92
2022-12-12T07:09:49.907Z,26.17
2022-12-12T07:10:52.001Z,27.05
2022-12-12T07:11:55.094Z,27.60
2022-12-12T07:12:58.421Z,26.92
2022-12-12T07:14:03.802Z,26.80
2022-12-12T07:15:07.552Z,26.65
2022-12-12T07:16:09.755Z,26.33
2022-12-12T07:17:12.871Z,27.33
2022-12-12T07:18:16.845Z,28.00
2022-12-12T07:19:19.924Z,26.88
2022-12-12T07:20:23.080Z,28.55
2022-12-12T07:21:25.696Z,27.05
2022-12-12T07:22:29.125Z,27.05
2022-12-12T07:23:31.297Z,27.05
2022-12-12T07:24:34.333Z,26.60
2022-12-12T07:25:38.565Z,26.40
2022-12-12T07:26:41.617Z,26.98
2022-12-12T07:27:43.786Z,27.15
2022-12-12T07:28:47.276Z,26.08
2022-12-12T07:29:51.861Z,25.15
2022-12-12T07:30:54.136Z,27.25
2022-12-12T07:31:57.415Z,27.17
2022-12-12T07:32:59.444Z,28.23
2022-12-12T07:34:02.476Z,28.80
2022-12-12T07:35:06.093Z,28.48
2022-12-12T07:36:08.615Z,28.33
2022-12-12T07:37:11.680Z,29.95
2022-12-12T07:38:13.703Z,32.60
2022-12-12T07:39:20.649Z,34.67
2022-12-12T07:40:23.425Z,34.60
2022-12-12T07:41:26.495Z,34.67
2022-12-12T07:42:29.546Z,36.92
2022-12-12T07:43:33.224Z,35.13
2022-12-12T07:44:37.094Z,32.88
2022-12-12T07:45:44.255Z,31.80
2022-12-12T07:46:47.252Z,33.88
2022-12-12T07:47:50.312Z,31.05
2022-12-12T07:48:54.690Z,32.88
2022-12-12T07:49:57.708Z,31.55
2022-12-12T07:51:01.166Z,31.23
2022-12-12T07:52:04.911Z,29.13
2022-12-12T07:53:07.667Z,30.48
2022-12-12T07:54:10.675Z,30.25
2022-12-12T07:55:14.035Z,29.80
2022-12-12T07:56:18.771Z,31.10
2022-12-12T07:57:21.832Z,30.95
2022-12-12T07:58:24.879Z,31.92
2022-12-12T07:59:27.020Z,32.08
2022-12-12T08:00:30.067Z,32.33
2022-12-12T08:01:35.025Z,33.00
2022-12-12T08:02:37.082Z,30.65
2022-12-12T08:03:40.341Z,32.13
2022-12-12T08:04:43.402Z,29.92
2022-12-12T08:05:45.477Z,29.45
2022-12-12T08:06:49.985Z,29.75
2022-12-12T08:07:53.749Z,29.73
2022-12-12T08:08:57.051Z,31.23
2022-12-12T08:09:59.050Z,30.48
2022-12-12T08:11:06.520Z,30.85
2022-12-12T08:12:09.585Z,29.38
2022-12-12T08:13:11.970Z,30.48
2022-12-12T08:14:15.135Z,30.25
2022-12-12T08:15:19.185Z,29.88
2022-12-12T08:16:24.412Z,30.30
2022-12-12T08:17:28.949Z,29.67
2022-12-12T08:18:32.115Z,29.40
2022-12-12T08:19:35.679Z,28.98
2022-12-12T08:20:40.912Z,30.58
2022-12-12T08:21:44.611Z,28.27
2022-12-12T08:22:47.619Z,29.05
2022-12-12T08:23:50.612Z,30.65
2022-12-12T08:24:53.608Z,27.85
2022-12-12T08:25:56.524Z,29.85
2022-12-12T08:26:59.635Z,28.98
2022-12-12T08:28:01.757Z,30.08
2022-12-12T08:29:05.337Z,28.42
2022-12-12T08:30:10.170Z,29.02
2022-12-12T08:31:15.793Z,28.75
2022-12-12T08:32:18.826Z,30.27
2022-12-12T08:33:23.219Z,29.23
2022-12-12T08:34:26.419Z,29.17
2022-12-12T08:35:29.554Z,29.08
2022-12-12T08:36:34.909Z,29.20
2022-12-12T08:37:36.897Z,28.67
2022-12-12T08:38:40.042Z,27.80
2022-12-12T08:39:42.030Z,29.50
2022-12-12T08:40:45.762Z,28.63
2022-12-12T08:41:50.939Z,29.20
2022-12-12T08:42:53.994Z,29.33
2022-12-12T08:43:57.022Z,28.83
2022-12-12T08:44:59.012Z,30.60
2022-12-12T08:46:02.415Z,29.10
2022-12-12T08:47:05.747Z,29.30
2022-12-12T08:48:09.834Z,29.55
2022-12-12T08:49:16.276Z,30.02
2022-12-12T08:50:20.209Z,30.33
2022-12-12T08:51:24.278Z,29.48
2022-12-12T08:52:27.379Z,30.80
2022-12-12T08:53:30.833Z,30.85
2022-12-12T08:54:34.085Z,31.33
2022-12-12T08:55:37.330Z,29.92
2022-12-12T08:56:41.081Z,31.35
2022-12-12T08:57:44.323Z,31.10
2022-12-12T08:58:46.736Z,31.15
2022-12-12T08:59:49.780Z,32.10
2022-12-12T09:00:53.120Z,32.65
2022-12-12T09:01:57.195Z,33.78
2022-12-12T09:03:00.632Z,33.30
2022-12-12T09:04:03.967Z,33.47
2022-12-12T09:05:09.280Z,33.40
2022-12-12T09:06:13.027Z,32.50
2022-12-12T09:07:16.117Z,32.08
2022-12-12T09:08:19.356Z,31.70
2022-12-12T09:09:22.678Z,31.13
2022-12-12T09:10:25.738Z,30.67
2022-12-12T09:11:28.831Z,30.40
2022-12-12T09:12:35.610Z,32.05
2022-12-12T09:13:41.470Z,32.33
2022-12-12T09:14:44.476Z,32.05
2022-12-12T09:15:51.592Z,32.65
2022-12-12T09:16:56.794Z,32.70
2022-12-12T09:17:59.826Z,33.25
2022-12-12T09:19:03.178Z,32.08
2022-12-12T09:20:08.595Z,31.90
2022-12-12T09:21:10.608Z,32.45
2022-12-12T09:22:13.707Z,32.50
2022-12-12T09:23:16.814Z,32.63
2022-12-12T09:24:19.795Z,31.15
2022-12-12T09:25:22.863Z,31.88
2022-12-12T09:26:25.879Z,29.52
2022-12-12T09:27:28.148Z,31.52
2022-12-12T09:28:31.165Z,32.00
2022-12-12T09:29:34.232Z,29.50
2022-12-12T09:30:37.285Z,30.83
2022-12-12T09:31:40.446Z,30.20
2022-12-12T09:32:45.332Z,28.75
2022-12-12T09:33:49.027Z,29.40
2022-12-12T09:34:53.212Z,28.65
2022-12-12T09:36:02.027Z,29.55
2022-12-12T09:37:05.151Z,27.23
2022-12-12T09:38:13.965Z,27.60
2022-12-12T09:39:17.737Z,28.58
2022-12-12T09:40:28.640Z,28.83
2022-12-12T09:41:31.842Z,27.85
2022-12-12T09:42:35.628Z,27.42
2022-12-12T09:43:45.236Z,27.85
2022-12-12T09:44:49.461Z,28.63
2022-12-12T09:45:53.071Z,27.17
2022-12-12T09:47:00.580Z,26.98
2022-12-12T09:48:05.753Z,27.90
2022-12-12T09:49:15.261Z,27.88
2022-12-12T09:50:25.584Z,27.77
2022-12-12T09:51:30.175Z,25.92
2022-12-12T09:52:36.108Z,28.02
2022-12-12T09:53:41.248Z,26.48
2022-12-12T09:54:44.645Z,28.13
2022-12-12T09:55:56.041Z,27.60
2022-12-12T09:57:12.207Z,27.20
2022-12-12T09:58:24.616Z,27.92
2022-12-12T09:59:35.057Z,27.15
2022-12-12T10:00:44.606Z,27.35
2022-12-12T10:02:01.229Z,27.10
2022-12-12T10:03:18.074Z,26.08
2022-12-12T10:04:29.514Z,27.63
2022-12-12T10:05:40.891Z,26.52
2022-12-12T10:06:52.188Z,25.58
2022-12-12T10:08:02.777Z,25.88
2022-12-12T10:09:26.982Z,26.40
2022-12-12T10:10:33.686Z,26.20
2022-12-12T10:11:54.829Z,27.08
2022-12-12T10:12:59.344Z,26.13
2022-12-12T10:14:04.999Z,27.48
2022-12-12T10:15:16.304Z,26.90
2022-12-12T10:16:19.504Z,28.45
2022-12-12T10:17:27.678Z,27.70
2022-12-12T10:18:35.417Z,28.83
2022-12-12T10:19:47.332Z,27.90
2022-12-12T10:20:53.310Z,27.92
2022-12-12T10:22:03.348Z,25.92
2022-12-12T10:23:14.392Z,20.90
2022-12-12T10:24:28.433Z,25.13
2022-12-12T10:25:42.657Z,26.83
2022-12-12T10:26:44.885Z,26.02
2022-12-12T10:27:49.723Z,27.88
2022-12-12T10:28:55.426Z,26.88
2022-12-12T10:30:05.814Z,26.75
2022-12-12T10:31:23.984Z,27.40
2022-12-12T10:32:37.348Z,26.92
2022-12-12T10:33:52.352Z,28.25
2022-12-12T10:35:04.300Z,26.48
2022-12-12T10:36:15.144Z,27.77
2022-12-12T10:37:31.232Z,26.25
2022-12-12T10:38:52.148Z,25.55
2022-12-12T10:40:05.188Z,25.60
2022-12-12T10:41:16.489Z,25.10
2022-12-12T10:42:28.871Z,25.58
2022-12-12T10:43:39.096Z,25.20
2022-12-12T10:45:00.936Z,26.52
2022-12-12T10:46:19.276Z,25.17
2022-12-12T10:47:21.543Z,25.60
2022-12-12T10:48:24.660Z,24.52
2022-12-12T10:49:27.936Z,26.17
2022-12-12T10:50:34.848Z,24.77
2022-12-12T10:51:37.977Z,25.60
2022-12-12T10:52:42.386Z,25.85
2022-12-12T10:53:45.290Z,26.48
2022-12-12T10:54:52.920Z,26.48
2022-12-12T10:55:59.959Z,25.20
2022-12-12T10:57:18.033Z,27.30
2022-12-12T10:58:26.260Z,28.10
2022-12-12T10:59:28.666Z,28.05
2022-12-12T11:00:33.755Z,28.67
2022-12-12T11:03:13.661Z,27.30
2022-12-12T11:04:16.986Z,29.25
2022-12-12T11:05:24.789Z,27.33
2022-12-12T11:06:31.504Z,26.92
2022-12-12T11:07:37.881Z,27.42
2022-12-12T11:08:53.849Z,27.90
2022-12-12T11:10:01.931Z,27.58
2022-12-12T11:11:08.643Z,26.88
2022-12-12T11:12:15.665Z,27.58
2022-12-12T11:13:18.908Z,26.50
2022-12-12T11:14:28.034Z,27.23
2022-12-12T11:15:40.597Z,27.23
2022-12-12T11:16:45.411Z,25.85
2022-12-12T11:17:50.266Z,26.30
2022-12-12T11:19:04.407Z,26.17
2022-12-12T11:20:10.673Z,25.98
2022-12-12T11:21:15.112Z,26.58
2022-12-12T11:22:18.234Z,25.08
2022-12-12T11:23:25.928Z,27.70
2022-12-12T11:24:33.360Z,27.63
2022-12-12T11:25:37.615Z,24.63
2022-12-12T11:26:46.400Z,25.05
2022-12-12T11:27:49.742Z,24.95
2022-12-12T11:28:57.257Z,23.38
2022-12-12T11:30:02.621Z,23.60
2022-12-12T11:31:08.227Z,23.25
2022-12-12T11:32:14.315Z,23.95
2022-12-12T11:33:20.918Z,23.52
2022-12-12T11:34:27.338Z,24.15
2022-12-12T11:35:35.901Z,24.77
2022-12-12T11:36:41.552Z,25.60
2022-12-12T11:37:49.427Z,26.13
2022-12-12T11:38:55.957Z,26.27
2022-12-12T11:39:59.374Z,25.88
2022-12-12T11:41:05.786Z,24.85
2022-12-12T11:42:19.467Z,23.58
2022-12-12T11:43:26.339Z,24.27
2022-12-12T11:44:34.496Z,24.85
2022-12-12T11:45:37.605Z,24.58
2022-12-12T11:46:40.889Z,24.33
2022-12-12T11:47:44.668Z,25.15
2022-12-12T11:48:57.752Z,24.63
2022-12-12T11:50:04.969Z,24.23
2022-12-12T11:51:12.733Z,23.92
2022-12-12T11:52:20.866Z,23.42
2022-12-12T11:53:23.929Z,23.88
2022-12-12T11:54:31.034Z,24.08
2022-12-12T11:55:44.408Z,22.80
2022-12-12T11:56:54.856Z,23.42
2022-12-12T11:58:11.905Z,22.10
2022-12-12T11:59:38.236Z,23.33
2022-12-12T12:00:46.964Z,23.00
2022-12-12T12:02:00.749Z,21.45
2022-12-12T12:03:29.806Z,22.67
2022-12-12T12:04:53.225Z,22.67
2022-12-12T12:06:15.123Z,22.05
2022-12-12T12:07:39.180Z,21.65
2022-12-12T12:09:03.891Z,23.15
2022-12-12T12:10:18.336Z,22.77
2022-12-12T12:11:32.675Z,22.15
2022-12-12T12:12:50.718Z,22.83
2022-12-12T12:14:09.452Z,21.55
2022-12-12T12:15:28.376Z,22.23
2022-12-12T12:16:40.934Z,22.52
2022-12-12T12:18:01.088Z,22.15
2022-12-12T12:19:12.731Z,22.52
2022-12-12T12:20:25.582Z,22.67
2022-12-12T12:21:37.028Z,23.02
2022-12-12T12:22:49.881Z,22.85
2022-12-12T12:24:04.273Z,22.20
2022-12-12T12:25:32.821Z,23.48
2022-12-12T12:26:44.311Z,22.88
2022-12-12T12:27:57.686Z,22.35
2022-12-12T12:29:28.911Z,22.55
2022-12-12T12:30:40.375Z,21.88
2022-12-12T12:31:53.797Z,22.52
2022-12-12T12:33:24.813Z,23.45
2022-12-12T12:35:50.788Z,21.42
2022-12-12T12:37:09.248Z,21.55
2022-12-12T12:38:24.759Z,23.08
2022-12-12T12:39:47.015Z,22.38
2022-12-12T12:41:07.850Z,21.58
2022-12-12T12:42:23.673Z,22.13
2022-12-12T12:43:46.730Z,22.58
2022-12-12T12:44:56.205Z,22.45
2022-12-12T12:46:08.410Z,22.30
2022-12-12T12:47:22.039Z,22.50
2022-12-12T12:48:35.418Z,22.05
2022-12-12T12:49:44.751Z,24.05
2022-12-12T12:50:53.011Z,23.75
2022-12-12T12:52:00.348Z,23.05
2022-12-12T12:53:08.988Z,21.95
2022-12-12T12:54:19.306Z,22.85
2022-12-12T12:55:27.805Z,23.05
2022-12-12T12:56:33.559Z,22.13
2022-12-12T12:57:41.400Z,22.83
2022-12-12T12:58:48.551Z,22.75
2022-12-12T12:59:57.126Z,22.95
2022-12-12T13:01:04.746Z,21.73
2022-12-12T13:02:26.808Z,22.77
2022-12-12T13:03:37.823Z,22.58
2022-12-12T13:04:46.179Z,23.08
2022-12-12T13:05:53.705Z,22.75
2022-12-12T13:07:01.123Z,23.02
2022-12-12T13:08:14.673Z,22.73
2022-12-12T13:09:28.357Z,23.17
2022-12-12T13:10:33.948Z,21.83
2022-12-12T13:11:42.918Z,21.98
2022-12-12T13:12:53.235Z,22.50
2022-12-12T13:14:00.467Z,22.45
2022-12-12T13:15:07.544Z,23.70
2022-12-12T13:16:15.003Z,24.17
2022-12-12T13:17:21.474Z,22.70
2022-12-12T13:18:25.267Z,22.67
2022-12-12T13:19:32.469Z,22.52
2022-12-12T13:20:40.377Z,22.55
2022-12-12T13:21:51.416Z,22.73
2022-12-12T13:23:09.408Z,21.85
2022-12-12T13:24:20.289Z,22.35
2022-12-12T13:25:34.573Z,22.88
2022-12-12T13:26:44.503Z,22.23
2022-12-12T13:27:54.406Z,23.35
2022-12-12T13:29:00.901Z,23.10
2022-12-12T13:30:10.147Z,23.58
2022-12-12T13:31:32.279Z,23.00
2022-12-12T13:32:58.399Z,20.83
2022-12-12T13:34:06.095Z,20.88
2022-12-12T13:35:13.796Z,20.60
2022-12-12T13:36:29.081Z,20.73
2022-12-12T13:37:37.468Z,20.45
2022-12-12T13:38:42.024Z,20.88
2022-12-12T13:39:45.630Z,19.90
2022-12-12T13:40:57.043Z,21.60
2022-12-12T13:42:02.407Z,20.40
2022-12-12T13:43:10.303Z,21.23
2022-12-12T13:44:34.118Z,21.88
2022-12-12T13:45:42.854Z,20.92
2022-12-12T13:46:45.985Z,21.45
2022-12-12T13:48:02.306Z,22.73
2022-12-12T13:49:20.133Z,21.67
2022-12-12T13:50:24.357Z,23.40
2022-12-12T13:51:38.905Z,22.85
2022-12-12T13:52:43.470Z,21.85
2022-12-12T13:53:45.542Z,23.05
2022-12-12T13:54:49.120Z,24.02
2022-12-12T13:56:27.004Z,24.75
2022-12-12T13:57:33.459Z,24.73
2022-12-12T13:58:37.889Z,23.65
2022-12-12T14:00:29.979Z,24.52
2022-12-12T14:01:40.195Z,22.48
2022-12-12T14:02:46.801Z,25.00
2022-12-12T14:03:50.041Z,23.75
2022-12-12T14:05:10.177Z,24.50
2022-12-12T14:06:19.530Z,18.35
2022-12-12T14:07:25.548Z,24.13
2022-12-12T14:08:32.180Z,24.17
2022-12-12T14:09:48.464Z,25.40
2022-12-12T14:11:00.193Z,24.38
2022-12-12T14:12:07.565Z,24.23
2022-12-12T14:13:27.648Z,25.27
2022-12-12T14:14:34.028Z,25.75
2022-12-12T14:15:37.507Z,25.35
2022-12-12T14:16:41.071Z,26.42
2022-12-12T14:17:53.867Z,26.13
2022-12-12T14:19:04.826Z,24.80
2022-12-12T14:20:09.286Z,25.52
2022-12-12T14:21:15.340Z,25.15
2022-12-12T14:22:27.735Z,24.95
2022-12-12T14:23:32.757Z,26.27
2022-12-12T14:25:07.594Z,25.23
2022-12-12T14:26:47.992Z,25.60
2022-12-12T14:28:14.634Z,25.30
2022-12-12T14:29:28.853Z,25.58
2022-12-12T14:30:46.019Z,24.27
2022-12-12T14:31:57.400Z,25.13